Aérodrome :
LOGIN :

S'inscrire | Disclaimer

   EN    FR    IT 

 










Légende :    VFR   VFR Marginal   IFR   IFR Intensif   IFR Très Intensif
Visi : 
Plafond : 
>= 8 km
>= 3000ft
5 à 8 km
1000 à 3000 ft
1500m à 5 km
500 à 1000 ft
800 à 1500m
200 à 500 ft
< 800m
< 200 ft
Symboles :   Orages  Brouillard  Fortes neiges  Fortes précipitations  Vent > 20 kt
SIGMETs :   Divers  Orages  Givrage  Turbulence  Onde Orograph.  Cendres Volcan.






- Altitude de l'aérodrome : 203 ft
- Code IATA : XMJ


LFBM - Mont-De-Marsan

DERNIER METAR :
  • 150230Z AUTO VRB03KT CAVOK 12/05 Q1009 NOSIG

METARs EXPIRÉS :
  • 150200Z AUTO VRB03KT CAVOK 12/06 Q1009 NOSIG
  • 150130Z AUTO VRB02KT CAVOK 12/06 Q1009 NOSIG
  • 150100Z AUTO VRB03KT CAVOK 12/06 Q1010 NOSIG
  • 150030Z AUTO 18003KT CAVOK 13/06 Q1010 NOSIG
  • 150000Z AUTO 17004KT 140V220 CAVOK 13/06 Q1010 NOSIG

TAF TAF LFBM
Valide du 15 à 03h jusqu'au 16 à 03h UTC


150200Z 1503/1603 22005KT 9999 BKN045
BECMG 1600/1602 BKN005



MET'MAP, la Météo Aéronautique d'un coup d'oeil ! - Copyright ORBIFLY Décembre 2007 - Disclaimer

ORBIFLY MET'MAP TEAM :

Programmation & Développement : Alexandra Zaïnal
Sur une idée originale de : Baudouin d'Aumeries
Assistance à la programmation : Marc-Olivier Méhu
Soutien technique & logistique : Manuel Goepfert

Contact : metmap@orbifly.com




SOURCES & CREDITS :

   NOAA